createdAt,value
2018-12-26T00:00:47.574Z,83.83
2018-12-26T00:01:47.663Z,84.03
2018-12-26T00:02:47.614Z,84.39
2018-12-26T00:03:47.558Z,84.24
2018-12-26T00:04:47.543Z,84.87
2018-12-26T00:05:47.676Z,84.77
2018-12-26T00:06:47.515Z,84.34
2018-12-26T00:07:47.540Z,83.86
2018-12-26T00:08:47.518Z,84.49
2018-12-26T00:09:47.513Z,85.22
2018-12-26T00:10:47.499Z,85.01
2018-12-26T00:11:47.483Z,84.74
2018-12-26T00:12:47.464Z,85.47
2018-12-26T00:13:47.630Z,85.05
2018-12-26T00:14:47.456Z,85.16
2018-12-26T00:15:47.468Z,85.47
2018-12-26T00:16:47.433Z,84.91
2018-12-26T00:17:47.495Z,85.12
2018-12-26T00:18:47.494Z,85.26
2018-12-26T00:19:47.416Z,85.22
2018-12-26T00:20:47.362Z,84.95
2018-12-26T00:21:47.366Z,85.33
2018-12-26T00:22:47.350Z,84.59
2018-12-26T00:23:47.362Z,84.59
2018-12-26T00:24:47.323Z,84.39
2018-12-26T00:25:47.337Z,84.17
2018-12-26T00:26:47.301Z,84.28
2018-12-26T00:27:47.311Z,84.17
2018-12-26T00:28:47.307Z,83.83
2018-12-26T00:29:48.878Z,83.83
2018-12-26T00:30:47.256Z,84.03
2018-12-26T00:31:47.252Z,83.93
2018-12-26T00:32:47.235Z,83.83
2018-12-26T00:33:47.249Z,83.40
2018-12-26T00:34:47.216Z,84.03
2018-12-26T00:35:47.320Z,83.44
2018-12-26T00:36:47.193Z,83.86
2018-12-26T00:37:47.186Z,85.16
2018-12-26T00:38:47.470Z,85.47
2018-12-26T00:39:48.064Z,85.36
2018-12-26T00:40:47.149Z,85.16
2018-12-26T00:41:47.166Z,85.26
2018-12-26T00:42:47.127Z,84.70
2018-12-26T00:43:47.208Z,85.26
2018-12-26T00:44:47.126Z,84.95
2018-12-26T00:45:47.107Z,85.26
2018-12-26T00:46:47.085Z,84.91
2018-12-26T00:47:47.092Z,85.16
2018-12-26T00:48:47.077Z,84.91
2018-12-26T00:49:47.123Z,84.32
2018-12-26T00:50:47.043Z,85.22
2018-12-26T00:51:47.047Z,84.39
2018-12-26T00:52:47.023Z,84.17
2018-12-26T00:53:47.017Z,84.70
2018-12-26T00:54:47.031Z,84.28
2018-12-26T00:55:46.994Z,84.07
2018-12-26T00:56:46.979Z,83.97
2018-12-26T00:57:46.973Z,84.07
2018-12-26T00:58:46.959Z,84.07
2018-12-26T00:59:47.127Z,83.76
2018-12-26T01:00:46.950Z,83.86
2018-12-26T01:01:46.927Z,84.39
2018-12-26T01:02:46.916Z,85.05
2018-12-26T01:03:46.931Z,84.74
2018-12-26T01:04:46.913Z,84.63
2018-12-26T01:05:46.973Z,85.05
2018-12-26T01:06:46.902Z,84.84
2018-12-26T01:07:46.867Z,85.26
2018-12-26T01:08:46.854Z,85.26
2018-12-26T01:09:46.912Z,84.95
2018-12-26T01:10:46.834Z,84.95
2018-12-26T01:11:46.824Z,84.84
2018-12-26T01:12:46.849Z,84.63
2018-12-26T01:13:46.869Z,85.58
2018-12-26T01:14:46.789Z,85.99
2018-12-26T01:15:46.832Z,85.99
2018-12-26T01:16:46.767Z,85.89
2018-12-26T01:17:46.756Z,86.10
2018-12-26T01:18:46.746Z,85.99
2018-12-26T01:19:46.810Z,86.20
2018-12-26T01:20:46.766Z,85.47
2018-12-26T01:21:46.794Z,86.10
2018-12-26T01:22:46.702Z,86.24
2018-12-26T01:23:46.706Z,86.28
2018-12-26T01:24:46.683Z,87.12
2018-12-26T01:25:46.745Z,87.01
2018-12-26T01:26:46.660Z,87.96
2018-12-26T01:27:46.711Z,87.85
2018-12-26T01:28:46.641Z,87.92
2018-12-26T01:29:46.635Z,87.50
2018-12-26T01:30:46.637Z,87.29
2018-12-26T01:31:46.614Z,87.60
2018-12-26T01:32:46.605Z,88.02
2018-12-26T01:33:46.618Z,87.71
2018-12-26T01:34:46.577Z,87.81
2018-12-26T01:35:46.627Z,88.02
2018-12-26T01:36:46.555Z,87.71
2018-12-26T01:37:46.584Z,87.39
2018-12-26T01:38:46.535Z,87.81
2018-12-26T01:39:46.586Z,88.59
2018-12-26T01:40:46.556Z,88.44
2018-12-26T01:41:46.512Z,87.60
2018-12-26T01:42:46.493Z,87.81
2018-12-26T01:43:46.518Z,87.29
2018-12-26T01:44:46.478Z,87.08
2018-12-26T01:45:46.537Z,87.29
2018-12-26T01:46:46.449Z,87.29
2018-12-26T01:47:46.504Z,86.45
2018-12-26T01:48:46.430Z,86.35
2018-12-26T01:49:46.465Z,86.10
2018-12-26T01:50:46.416Z,86.10
2018-12-26T01:51:46.442Z,85.47
2018-12-26T01:52:46.386Z,85.89
2018-12-26T01:53:46.439Z,85.78
2018-12-26T01:54:46.366Z,85.99
2018-12-26T01:55:46.391Z,86.20
2018-12-26T01:56:46.362Z,86.10
2018-12-26T01:57:46.369Z,85.78
2018-12-26T01:58:46.324Z,85.26
2018-12-26T01:59:46.335Z,85.26
2018-12-26T02:00:46.309Z,85.26
2018-12-26T02:01:46.341Z,85.89
2018-12-26T02:02:46.286Z,85.99
2018-12-26T02:03:46.303Z,86.35
2018-12-26T02:04:46.263Z,86.31
2018-12-26T02:05:46.255Z,87.08
2018-12-26T02:06:46.274Z,86.87
2018-12-26T02:07:46.265Z,87.08
2018-12-26T02:08:46.220Z,86.98
2018-12-26T02:09:46.238Z,86.98
2018-12-26T02:10:46.197Z,87.04
2018-12-26T02:11:46.239Z,86.31
2018-12-26T02:12:46.179Z,86.31
2018-12-26T02:13:46.192Z,87.08
2018-12-26T02:14:46.162Z,86.52
2018-12-26T02:15:46.182Z,86.31
2018-12-26T02:16:46.170Z,86.52
2018-12-26T02:17:46.159Z,85.89
2018-12-26T02:18:46.184Z,86.20
2018-12-26T02:19:46.142Z,86.27
2018-12-26T02:20:46.093Z,85.89
2018-12-26T02:21:46.204Z,86.10
2018-12-26T02:22:46.071Z,85.68
2018-12-26T02:23:46.092Z,85.43
2018-12-26T02:24:46.055Z,84.84
2018-12-26T02:25:46.069Z,85.68
2018-12-26T02:26:46.032Z,86.10
2018-12-26T02:27:46.070Z,85.47
2018-12-26T02:28:46.013Z,86.04
2018-12-26T02:29:46.023Z,86.04
2018-12-26T02:30:45.992Z,85.89
2018-12-26T02:31:45.999Z,84.99
2018-12-26T02:32:45.989Z,85.05
2018-12-26T02:33:45.977Z,85.61
2018-12-26T02:34:45.945Z,84.95
2018-12-26T02:35:45.959Z,85.30
2018-12-26T02:36:45.922Z,85.19
2018-12-26T02:37:45.965Z,85.51
2018-12-26T02:38:45.905Z,85.26
2018-12-26T02:39:45.913Z,85.51
2018-12-26T02:40:45.882Z,85.26
2018-12-26T02:41:45.888Z,85.51
2018-12-26T02:42:45.887Z,85.30
2018-12-26T02:43:45.889Z,85.47
2018-12-26T02:44:45.841Z,85.51
2018-12-26T02:45:45.845Z,85.82
2018-12-26T02:46:45.817Z,85.82
2018-12-26T02:47:45.842Z,86.04
2018-12-26T02:48:45.797Z,86.14
2018-12-26T02:49:45.806Z,86.14
2018-12-26T02:50:45.782Z,85.93
2018-12-26T02:51:45.775Z,86.60
2018-12-26T02:52:45.773Z,87.54
2018-12-26T02:53:45.772Z,87.18
2018-12-26T02:54:45.733Z,87.43
2018-12-26T02:55:45.777Z,87.29
2018-12-26T02:56:47.776Z,87.29
2018-12-26T02:57:45.749Z,87.25
2018-12-26T02:58:45.690Z,87.60
2018-12-26T02:59:45.696Z,86.83
2018-12-26T03:00:45.670Z,86.98
2018-12-26T03:01:45.682Z,87.04
2018-12-26T03:02:45.695Z,87.15
2018-12-26T03:03:45.647Z,86.31
2018-12-26T03:04:45.629Z,87.08
2018-12-26T03:05:45.624Z,87.33
2018-12-26T03:06:45.613Z,87.12
2018-12-26T03:07:45.641Z,87.39
2018-12-26T03:08:45.610Z,88.48
2018-12-26T03:09:45.607Z,89.22
2018-12-26T03:10:45.564Z,88.90
2018-12-26T03:11:45.562Z,89.11
2018-12-26T03:12:45.547Z,89.42
2018-12-26T03:13:45.564Z,89.32
2018-12-26T03:14:45.523Z,89.25
2018-12-26T03:15:45.522Z,89.98
2018-12-26T03:16:45.503Z,89.88
2018-12-26T03:17:45.503Z,90.20
2018-12-26T03:18:45.501Z,90.09
2018-12-26T03:19:45.488Z,89.67
2018-12-26T03:20:45.460Z,89.67
2018-12-26T03:21:45.451Z,89.57
2018-12-26T03:22:45.441Z,89.67
2018-12-26T03:23:45.457Z,89.67
2018-12-26T03:24:45.429Z,89.29
2018-12-26T03:25:45.426Z,89.72
2018-12-26T03:26:45.398Z,89.78
2018-12-26T03:27:45.414Z,90.09
2018-12-26T03:28:45.419Z,90.20
2018-12-26T03:29:45.367Z,89.88
2018-12-26T03:30:45.358Z,89.15
2018-12-26T03:31:45.365Z,89.19
2018-12-26T03:32:45.339Z,88.77
2018-12-26T03:33:45.363Z,89.12
2018-12-26T03:34:45.335Z,89.29
2018-12-26T03:35:45.308Z,90.17
2018-12-26T03:36:45.294Z,89.65
2018-12-26T03:37:45.294Z,90.45
2018-12-26T03:38:45.273Z,90.76
2018-12-26T03:39:45.288Z,90.76
2018-12-26T03:40:45.254Z,90.83
2018-12-26T03:41:45.245Z,91.03
2018-12-26T03:42:45.234Z,90.72
2018-12-26T03:43:45.237Z,90.83
2018-12-26T03:44:45.234Z,91.56
2018-12-26T03:45:45.208Z,90.72
2018-12-26T03:46:45.198Z,91.08
2018-12-26T03:47:45.181Z,90.72
2018-12-26T03:48:45.172Z,90.72
2018-12-26T03:49:45.185Z,91.14
2018-12-26T03:50:45.235Z,90.72
2018-12-26T03:51:45.141Z,90.68
2018-12-26T03:52:45.138Z,89.95
2018-12-26T03:53:45.119Z,90.26
2018-12-26T03:54:45.143Z,89.32
2018-12-26T03:55:45.108Z,89.07
2018-12-26T03:56:45.088Z,88.69
2018-12-26T03:57:45.097Z,87.74
2018-12-26T03:58:45.076Z,87.29
2018-12-26T03:59:45.079Z,87.18
2018-12-26T04:00:45.049Z,87.39
2018-12-26T04:01:45.043Z,87.08
2018-12-26T04:02:45.028Z,86.98
2018-12-26T04:03:45.018Z,87.18
2018-12-26T04:04:45.023Z,86.98
2018-12-26T04:05:44.997Z,86.55
2018-12-26T04:06:44.992Z,86.24
2018-12-26T04:07:44.987Z,86.24
2018-12-26T04:08:44.965Z,85.89
2018-12-26T04:09:44.982Z,86.04
2018-12-26T04:10:44.943Z,85.82
2018-12-26T04:11:44.933Z,86.04
2018-12-26T04:12:44.927Z,86.24
2018-12-26T04:13:44.928Z,86.24
2018-12-26T04:14:44.904Z,86.24
2018-12-26T04:15:44.909Z,86.70
2018-12-26T04:16:44.882Z,87.12
2018-12-26T04:17:44.875Z,87.12
2018-12-26T04:18:44.863Z,87.43
2018-12-26T04:19:44.863Z,87.54
2018-12-26T04:20:44.857Z,87.23
2018-12-26T04:21:44.830Z,87.33
2018-12-26T04:22:44.822Z,87.33
2018-12-26T04:23:44.811Z,87.74
2018-12-26T04:24:44.799Z,87.64
2018-12-26T04:25:44.838Z,87.37
2018-12-26T04:26:44.782Z,87.37
2018-12-26T04:27:44.768Z,87.37
2018-12-26T04:28:44.760Z,87.47
2018-12-26T04:29:44.753Z,87.83
2018-12-26T04:30:44.767Z,88.67
2018-12-26T04:31:44.730Z,88.56
2018-12-26T04:32:44.747Z,88.98
2018-12-26T04:33:44.708Z,89.29
2018-12-26T04:34:44.804Z,89.09
2018-12-26T04:35:44.709Z,88.98
2018-12-26T04:36:44.676Z,89.02
2018-12-26T04:37:44.665Z,89.12
2018-12-26T04:38:44.672Z,89.23
2018-12-26T04:39:44.645Z,89.34
2018-12-26T04:40:44.660Z,89.86
2018-12-26T04:41:44.625Z,89.92
2018-12-26T04:42:44.639Z,89.82
2018-12-26T04:43:44.602Z,90.03
2018-12-26T04:44:44.606Z,89.36
2018-12-26T04:45:44.586Z,89.29
2018-12-26T04:46:44.589Z,88.87
2018-12-26T04:47:44.566Z,88.94
2018-12-26T04:48:44.551Z,88.73
2018-12-26T04:49:44.542Z,88.62
2018-12-26T04:50:44.538Z,87.99
2018-12-26T04:51:44.539Z,87.89
2018-12-26T04:52:44.514Z,86.95
2018-12-26T04:53:44.503Z,87.37
2018-12-26T04:54:44.490Z,87.16
2018-12-26T04:55:44.481Z,87.05
2018-12-26T04:56:44.501Z,87.26
2018-12-26T04:57:44.459Z,86.74
2018-12-26T04:58:44.447Z,87.05
2018-12-26T04:59:44.437Z,87.30
2018-12-26T05:00:44.427Z,87.51
2018-12-26T05:01:44.436Z,87.62
2018-12-26T05:02:44.421Z,87.93
2018-12-26T05:03:44.397Z,87.83
2018-12-26T05:04:44.386Z,88.56
2018-12-26T05:05:44.375Z,88.67
2018-12-26T05:06:44.387Z,88.87
2018-12-26T05:07:44.355Z,88.98
2018-12-26T05:08:44.347Z,89.40
2018-12-26T05:09:44.333Z,90.07
2018-12-26T05:10:44.322Z,89.82
2018-12-26T05:11:44.330Z,89.61
2018-12-26T05:12:44.320Z,89.29
2018-12-26T05:13:44.293Z,89.36
2018-12-26T05:14:44.288Z,88.84
2018-12-26T05:15:44.272Z,88.62
2018-12-26T05:16:44.289Z,88.62
2018-12-26T05:17:44.252Z,88.94
2018-12-26T05:18:44.246Z,88.94
2018-12-26T05:19:44.232Z,89.04
2018-12-26T05:20:44.226Z,88.94
2018-12-26T05:21:44.237Z,88.73
2018-12-26T05:22:44.200Z,88.69
2018-12-26T05:23:44.189Z,88.69
2018-12-26T05:24:44.182Z,87.85
2018-12-26T05:25:44.174Z,87.26
2018-12-26T05:26:44.164Z,87.37
2018-12-26T05:27:44.167Z,87.05
2018-12-26T05:28:44.139Z,87.47
2018-12-26T05:29:44.126Z,87.05
2018-12-26T05:30:44.122Z,87.58
2018-12-26T05:31:44.113Z,87.37
2018-12-26T05:32:44.115Z,87.79
2018-12-26T05:33:44.086Z,88.21
2018-12-26T05:34:44.078Z,88.77
2018-12-26T05:35:44.069Z,88.56
2018-12-26T05:36:44.057Z,88.62
2018-12-26T05:37:44.070Z,88.67
2018-12-26T05:38:44.035Z,88.94
2018-12-26T05:39:44.026Z,88.56
2018-12-26T05:40:44.015Z,89.04
2018-12-26T05:41:44.003Z,89.15
2018-12-26T05:42:44.010Z,88.77
2018-12-26T05:43:43.991Z,88.52
2018-12-26T05:44:43.972Z,88.77
2018-12-26T05:45:43.960Z,88.73
2018-12-26T05:46:43.954Z,88.46
2018-12-26T05:47:43.958Z,88.46
2018-12-26T05:48:43.935Z,88.67
2018-12-26T05:49:43.937Z,88.98
2018-12-26T05:50:43.910Z,88.87
2018-12-26T05:51:43.899Z,89.04
2018-12-26T05:52:43.906Z,88.46
2018-12-26T05:53:43.881Z,88.73
2018-12-26T05:54:43.873Z,88.31
2018-12-26T05:55:43.869Z,88.62
2018-12-26T05:56:43.847Z,87.58
2018-12-26T05:57:43.875Z,87.62
2018-12-26T05:58:43.828Z,87.72
2018-12-26T05:59:43.819Z,88.73
2018-12-26T06:00:43.806Z,88.87
2018-12-26T06:01:43.808Z,88.87
2018-12-26T06:02:43.788Z,88.73
2018-12-26T06:03:43.796Z,87.68
2018-12-26T06:04:43.765Z,87.72
2018-12-26T06:05:43.754Z,87.72
2018-12-26T06:06:43.744Z,88.24
2018-12-26T06:07:43.837Z,87.93
2018-12-26T06:08:43.742Z,87.93
2018-12-26T06:09:43.712Z,87.93
2018-12-26T06:10:43.702Z,87.51
2018-12-26T06:11:43.691Z,87.72
2018-12-26T06:12:43.683Z,87.76
2018-12-26T06:13:43.705Z,88.56
2018-12-26T06:14:43.662Z,88.67
2018-12-26T06:15:43.652Z,88.77
2018-12-26T06:16:43.645Z,88.46
2018-12-26T06:17:43.630Z,88.77
2018-12-26T06:18:43.641Z,88.67
2018-12-26T06:19:43.617Z,88.87
2018-12-26T06:20:43.599Z,87.47
2018-12-26T06:21:43.589Z,87.68
2018-12-26T06:22:43.581Z,87.83
2018-12-26T06:23:43.586Z,88.14
2018-12-26T06:24:43.557Z,87.93
2018-12-26T06:25:43.563Z,87.83
2018-12-26T06:26:43.537Z,88.14
2018-12-26T06:27:51.199Z,87.72
2018-12-26T06:28:44.532Z,87.93
2018-12-26T06:29:43.506Z,88.18
2018-12-26T06:30:43.496Z,88.18
2018-12-26T06:31:43.505Z,87.87
2018-12-26T06:32:43.475Z,88.92
2018-12-26T06:33:43.493Z,88.29
2018-12-26T06:34:43.460Z,88.60
2018-12-26T06:35:43.443Z,88.56
2018-12-26T06:36:43.434Z,88.35
2018-12-26T06:37:43.429Z,88.04
2018-12-26T06:38:43.415Z,87.83
2018-12-26T06:39:43.423Z,88.07
2018-12-26T06:40:43.397Z,87.97
2018-12-26T06:41:43.381Z,88.04
2018-12-26T06:42:43.373Z,87.93
2018-12-26T06:43:43.365Z,87.62
2018-12-26T06:44:43.370Z,87.51
2018-12-26T06:45:43.341Z,87.41
2018-12-26T06:46:43.330Z,87.51
2018-12-26T06:47:43.322Z,87.24
2018-12-26T06:48:43.310Z,87.20
2018-12-26T06:49:45.310Z,87.45
2018-12-26T06:50:43.295Z,88.18
2018-12-26T06:51:43.279Z,88.04
2018-12-26T06:52:43.271Z,88.87
2018-12-26T06:53:43.259Z,88.39
2018-12-26T06:54:43.267Z,88.39
2018-12-26T06:55:43.247Z,88.60
2018-12-26T06:56:43.227Z,88.92
2018-12-26T06:57:43.221Z,89.02
2018-12-26T06:58:43.207Z,89.12
2018-12-26T06:59:43.217Z,89.34
2018-12-26T07:00:43.185Z,88.96
2018-12-26T07:01:43.183Z,88.92
2018-12-26T07:02:43.165Z,89.23
2018-12-26T07:03:43.206Z,88.81
2018-12-26T07:04:43.180Z,89.02
2018-12-26T07:05:43.134Z,89.12
2018-12-26T07:06:43.124Z,89.12
2018-12-26T07:07:43.128Z,89.02
2018-12-26T07:08:43.109Z,89.65
2018-12-26T07:09:43.092Z,89.34
2018-12-26T07:10:43.102Z,89.23
2018-12-26T07:11:43.073Z,88.71
2018-12-26T07:12:43.066Z,89.02
2018-12-26T07:13:43.058Z,88.92
2018-12-26T07:14:43.044Z,88.71
2018-12-26T07:15:43.049Z,88.49
2018-12-26T07:16:43.022Z,88.39
2018-12-26T07:17:43.012Z,88.81
2018-12-26T07:18:43.004Z,88.92
2018-12-26T07:19:43.002Z,88.60
2018-12-26T07:20:43.095Z,88.18
2018-12-26T07:21:42.972Z,87.55
2018-12-26T07:22:42.966Z,87.55
2018-12-26T07:23:42.950Z,87.66
2018-12-26T07:24:42.939Z,87.13
2018-12-26T07:25:42.957Z,87.41
2018-12-26T07:26:42.921Z,87.55
2018-12-26T07:27:42.909Z,87.41
2018-12-26T07:28:42.899Z,87.62
2018-12-26T07:29:42.889Z,87.24
2018-12-26T07:30:42.897Z,87.55
2018-12-26T07:31:42.876Z,86.99
2018-12-26T07:32:42.862Z,87.41
2018-12-26T07:33:42.848Z,87.30
2018-12-26T07:34:42.840Z,87.24
2018-12-26T07:35:42.843Z,87.41
2018-12-26T07:36:42.815Z,87.20
2018-12-26T07:37:42.818Z,87.41
2018-12-26T07:38:42.795Z,86.43
2018-12-26T07:39:42.785Z,86.25
2018-12-26T07:40:42.792Z,86.99
2018-12-26T07:41:42.769Z,87.26
2018-12-26T07:42:42.753Z,87.30
2018-12-26T07:43:42.750Z,86.53
2018-12-26T07:44:42.732Z,86.63
2018-12-26T07:45:42.756Z,86.43
2018-12-26T07:46:42.713Z,86.32
2018-12-26T07:47:42.706Z,86.22
2018-12-26T07:48:42.693Z,86.15
2018-12-26T07:49:42.690Z,86.25
2018-12-26T07:50:42.672Z,86.32
2018-12-26T07:51:42.683Z,86.22
2018-12-26T07:52:42.656Z,86.15
2018-12-26T07:53:42.640Z,86.00
2018-12-26T07:54:42.633Z,86.22
2018-12-26T07:55:42.625Z,86.43
2018-12-26T07:56:42.634Z,86.18
2018-12-26T07:57:42.602Z,85.90
2018-12-26T07:58:42.592Z,86.38
2018-12-26T07:59:42.578Z,86.22
2018-12-26T08:00:42.571Z,86.11
2018-12-26T08:01:42.586Z,85.38
2018-12-26T08:02:42.584Z,85.06
2018-12-26T08:03:42.541Z,85.27
2018-12-26T08:04:42.577Z,85.38
2018-12-26T08:05:42.517Z,85.59
2018-12-26T08:06:42.524Z,85.24
2018-12-26T08:07:42.503Z,85.06
2018-12-26T08:08:42.489Z,85.17
2018-12-26T08:09:42.483Z,85.27
2018-12-26T08:10:42.466Z,85.90
2018-12-26T08:11:42.494Z,85.69
2018-12-26T08:12:42.445Z,85.38
2018-12-26T08:13:42.438Z,85.48
2018-12-26T08:14:42.423Z,85.90
2018-12-26T08:15:42.414Z,85.59
2018-12-26T08:16:42.404Z,85.38
2018-12-26T08:17:42.421Z,85.69
2018-12-26T08:18:42.382Z,85.69
2018-12-26T08:19:42.382Z,85.65
2018-12-26T08:20:42.365Z,85.65
2018-12-26T08:21:42.351Z,85.34
2018-12-26T08:22:42.359Z,85.65
2018-12-26T08:23:42.331Z,84.71
2018-12-26T08:24:42.318Z,85.09
2018-12-26T08:25:42.315Z,84.25
2018-12-26T08:26:42.298Z,84.67
2018-12-26T08:27:42.306Z,84.22
2018-12-26T08:28:42.285Z,84.25
2018-12-26T08:29:42.267Z,83.73
2018-12-26T08:30:42.257Z,83.80
2018-12-26T08:31:42.251Z,83.59
2018-12-26T08:32:42.259Z,83.69
2018-12-26T08:33:42.225Z,83.69
2018-12-26T08:34:42.218Z,83.27
2018-12-26T08:35:42.235Z,83.03
2018-12-26T08:36:42.196Z,82.71
2018-12-26T08:37:42.213Z,83.03
2018-12-26T08:38:42.172Z,82.71
2018-12-26T08:39:42.161Z,82.09
2018-12-26T08:40:42.155Z,81.98
2018-12-26T08:41:42.149Z,82.09
2018-12-26T08:42:42.152Z,82.09
2018-12-26T08:43:42.127Z,82.75
2018-12-26T08:44:42.108Z,82.96
2018-12-26T08:45:42.097Z,82.96
2018-12-26T08:46:42.088Z,83.65
2018-12-26T08:47:42.094Z,83.38
2018-12-26T08:48:42.067Z,83.76
2018-12-26T08:49:42.067Z,83.03
2018-12-26T08:50:42.044Z,82.40
2018-12-26T08:51:42.044Z,82.19
2018-12-26T08:52:42.062Z,82.65
2018-12-26T08:53:42.017Z,82.86
2018-12-26T08:54:42.003Z,83.17
2018-12-26T08:55:42.007Z,83.90
2018-12-26T08:56:41.982Z,83.38
2018-12-26T08:57:42.004Z,83.80
2018-12-26T08:58:41.959Z,84.11
2018-12-26T08:59:41.968Z,83.59
2018-12-26T09:00:41.939Z,83.86
2018-12-26T09:01:41.954Z,83.59
2018-12-26T09:02:41.917Z,83.86
2018-12-26T09:03:41.927Z,83.51
2018-12-26T09:04:41.899Z,84.03
2018-12-26T09:05:41.887Z,83.30
2018-12-26T09:06:41.875Z,82.64
2018-12-26T09:07:41.880Z,82.12
2018-12-26T09:08:41.872Z,81.90
2018-12-26T09:09:41.843Z,81.90
2018-12-26T09:10:41.832Z,82.12
2018-12-26T09:11:41.827Z,81.97
2018-12-26T09:12:41.811Z,81.03
2018-12-26T09:13:41.825Z,80.82
2018-12-26T09:14:41.793Z,80.41
2018-12-26T09:15:41.778Z,80.09
2018-12-26T09:16:41.769Z,79.95
2018-12-26T09:17:41.758Z,79.81
2018-12-26T09:18:41.770Z,79.39
2018-12-26T09:19:41.737Z,79.67
2018-12-26T09:20:41.731Z,78.52
2018-12-26T09:21:41.715Z,78.11
2018-12-26T09:22:41.707Z,77.69
2018-12-26T09:23:41.713Z,78.11
2018-12-26T09:24:41.684Z,78.00
2018-12-26T09:25:41.897Z,78.45
2018-12-26T09:26:42.575Z,78.35
2018-12-26T09:27:41.652Z,78.56
2018-12-26T09:28:43.954Z,79.22
2018-12-26T09:29:41.630Z,79.53
2018-12-26T09:30:41.619Z,79.19
2018-12-26T09:31:41.609Z,79.39
2018-12-26T09:32:41.599Z,78.73
2018-12-26T09:33:41.831Z,77.69
2018-12-26T09:34:41.578Z,77.69
2018-12-26T09:35:41.565Z,77.58
2018-12-26T09:36:41.556Z,77.55
2018-12-26T09:37:41.551Z,77.66
2018-12-26T09:38:41.565Z,77.66
2018-12-26T09:39:41.523Z,77.13
2018-12-26T09:40:41.638Z,77.72
2018-12-26T09:41:41.537Z,77.10
2018-12-26T09:42:41.533Z,77.06
2018-12-26T09:43:41.482Z,76.65
2018-12-26T09:44:41.489Z,76.09
2018-12-26T09:45:41.460Z,75.29
2018-12-26T09:46:42.527Z,73.83
2018-12-26T09:47:41.438Z,73.21
2018-12-26T09:48:41.433Z,73.42
2018-12-26T09:49:41.436Z,73.18
2018-12-26T09:50:41.410Z,73.11
2018-12-26T09:51:41.397Z,73.11
2018-12-26T09:52:41.390Z,72.90
2018-12-26T09:53:41.387Z,73.00
2018-12-26T09:54:41.383Z,73.07
2018-12-26T09:55:41.362Z,72.97
2018-12-26T09:56:41.345Z,72.63
2018-12-26T09:57:41.334Z,72.42
2018-12-26T09:58:41.325Z,71.45
2018-12-26T09:59:41.340Z,70.72
2018-12-26T10:00:41.301Z,70.65
2018-12-26T10:01:41.293Z,70.86
2018-12-26T10:02:41.363Z,71.34
2018-12-26T10:03:41.310Z,70.93
2018-12-26T10:04:41.283Z,70.28
2018-12-26T10:05:41.258Z,70.90
2018-12-26T10:06:41.240Z,70.59
2018-12-26T10:07:41.616Z,70.38
2018-12-26T10:08:41.221Z,70.59
2018-12-26T10:09:41.225Z,70.17
2018-12-26T10:10:41.202Z,69.68
2018-12-26T10:11:41.194Z,69.96
2018-12-26T10:12:41.181Z,69.73
2018-12-26T10:13:41.176Z,70.04
2018-12-26T10:14:41.175Z,70.56
2018-12-26T10:15:41.164Z,70.35
2018-12-26T10:16:41.137Z,69.69
2018-12-26T10:17:41.127Z,68.31
2018-12-26T10:18:41.126Z,68.21
2018-12-26T10:19:41.125Z,67.48
2018-12-26T10:20:41.111Z,68.07
2018-12-26T10:21:41.084Z,67.97
2018-12-26T10:22:41.075Z,67.55
2018-12-26T10:23:41.107Z,67.17
2018-12-26T10:24:41.116Z,67.69
2018-12-26T10:25:41.045Z,67.51
2018-12-26T10:26:41.085Z,68.76
2018-12-26T10:27:41.032Z,67.90
2018-12-26T10:28:41.110Z,67.48
2018-12-26T10:29:41.066Z,67.90
2018-12-26T10:30:41.973Z,67.55
2018-12-26T10:31:41.031Z,67.86
2018-12-26T10:32:40.989Z,67.49
2018-12-26T10:33:40.963Z,66.84
2018-12-26T10:34:41.044Z,65.32
2018-12-26T10:35:40.964Z,65.60
2018-12-26T10:36:40.933Z,64.67
2018-12-26T10:37:41.125Z,64.25
2018-12-26T10:38:40.915Z,64.02
2018-12-26T10:39:41.184Z,63.09
2018-12-26T10:40:40.913Z,64.32
2018-12-26T10:41:40.898Z,64.15
2018-12-26T10:42:40.894Z,64.77
2018-12-26T10:43:40.898Z,63.95
2018-12-26T10:44:40.854Z,63.50
2018-12-26T10:45:40.861Z,62.46
2018-12-26T10:46:40.833Z,62.57
2018-12-26T10:47:40.844Z,62.60
2018-12-26T10:48:40.812Z,63.01
2018-12-26T10:49:40.806Z,63.32
2018-12-26T10:50:40.824Z,63.43
2018-12-26T10:51:40.779Z,62.85
2018-12-26T10:52:40.770Z,62.20
2018-12-26T10:53:40.760Z,61.55
2018-12-26T10:54:40.749Z,61.22
2018-12-26T10:55:40.801Z,61.73
2018-12-26T10:56:40.726Z,60.49
2018-12-26T10:57:40.716Z,61.22
2018-12-26T10:58:40.706Z,60.73
2018-12-26T10:59:40.699Z,61.52
2018-12-26T11:00:40.720Z,61.11
2018-12-26T11:01:40.682Z,60.57
2018-12-26T11:02:40.663Z,59.82
2018-12-26T11:03:40.653Z,59.33
2018-12-26T11:04:40.642Z,59.44
2018-12-26T11:05:40.631Z,59.12
2018-12-26T11:06:40.637Z,58.61
2018-12-26T11:07:40.626Z,59.67
2018-12-26T11:08:40.600Z,60.34
2018-12-26T11:09:40.588Z,60.63
2018-12-26T11:10:40.578Z,59.90
2018-12-26T11:11:40.585Z,60.28
2018-12-26T11:12:40.556Z,59.90
2018-12-26T11:13:40.564Z,60.52
2018-12-26T11:14:40.537Z,60.42
2018-12-26T11:15:40.589Z,60.86
2018-12-26T11:16:40.531Z,61.10
2018-12-26T11:17:40.504Z,62.05
2018-12-26T11:18:40.492Z,62.67
2018-12-26T11:19:40.494Z,63.32
2018-12-26T11:20:40.472Z,63.32
2018-12-26T11:21:40.479Z,64.28
2018-12-26T11:22:40.457Z,64.49
2018-12-26T11:23:40.453Z,64.46
2018-12-26T11:24:40.432Z,63.95
2018-12-26T11:25:40.439Z,63.35
2018-12-26T11:26:40.430Z,64.34
2018-12-26T11:27:40.398Z,64.24
2018-12-26T11:28:40.386Z,64.55
2018-12-26T11:29:40.375Z,64.76
2018-12-26T11:30:40.373Z,64.55
2018-12-26T11:31:40.373Z,64.27
2018-12-26T11:32:40.349Z,65.75
2018-12-26T11:33:40.334Z,65.75
2018-12-26T11:34:40.323Z,65.83
2018-12-26T11:35:40.312Z,65.34
2018-12-26T11:36:40.319Z,65.96
2018-12-26T11:37:40.292Z,66.55
2018-12-26T11:38:40.294Z,65.10
2018-12-26T11:39:40.271Z,65.38
2018-12-26T11:40:40.259Z,64.94
2018-12-26T11:41:40.268Z,64.83
2018-12-26T11:42:40.244Z,64.11
2018-12-26T11:43:40.230Z,63.90
2018-12-26T11:44:40.244Z,64.31
2018-12-26T11:45:40.228Z,64.07
2018-12-26T11:46:40.247Z,63.66
2018-12-26T11:47:40.199Z,63.15
2018-12-26T11:48:40.181Z,62.94
2018-12-26T11:49:40.178Z,63.46
2018-12-26T11:50:40.171Z,63.66
2018-12-26T11:51:40.149Z,63.66
2018-12-26T11:52:40.161Z,63.35
2018-12-26T11:53:40.153Z,62.94
2018-12-26T11:54:40.120Z,63.25
2018-12-26T11:55:40.119Z,63.01
2018-12-26T11:56:40.263Z,61.77
2018-12-26T11:57:40.113Z,61.98
2018-12-26T11:58:40.079Z,61.90
2018-12-26T11:59:40.075Z,62.32
2018-12-26T12:00:40.057Z,62.39
2018-12-26T12:01:40.048Z,62.39
2018-12-26T12:02:40.073Z,62.39
2018-12-26T12:03:40.036Z,62.81
2018-12-26T12:04:40.020Z,62.94
2018-12-26T12:05:40.019Z,63.32
2018-12-26T12:06:39.996Z,63.32
2018-12-26T12:07:40.159Z,63.43
2018-12-26T12:08:39.985Z,63.53
2018-12-26T12:09:39.967Z,62.98
2018-12-26T12:10:39.957Z,61.95
2018-12-26T12:11:39.952Z,60.60
2018-12-26T12:12:39.936Z,61.22
2018-12-26T12:13:39.981Z,61.61
2018-12-26T12:14:39.916Z,62.54
2018-12-26T12:15:39.906Z,62.34
2018-12-26T12:16:39.897Z,61.82
2018-12-26T12:17:39.884Z,62.44
2018-12-26T12:18:39.906Z,62.75
2018-12-26T12:19:39.867Z,62.67
2018-12-26T12:20:39.862Z,62.34
2018-12-26T12:21:39.854Z,62.34
2018-12-26T12:22:39.838Z,62.65
2018-12-26T12:23:39.840Z,61.71
2018-12-26T12:24:39.812Z,61.30
2018-12-26T12:25:39.802Z,61.82
2018-12-26T12:26:39.802Z,62.65
2018-12-26T12:27:39.787Z,61.82
2018-12-26T12:28:39.790Z,62.02
2018-12-26T12:29:39.766Z,61.58
2018-12-26T12:30:39.750Z,61.10
2018-12-26T12:31:39.740Z,61.48
2018-12-26T12:32:39.734Z,61.58
2018-12-26T12:33:39.742Z,61.20
2018-12-26T12:34:39.708Z,61.20
2018-12-26T12:35:39.700Z,61.51
2018-12-26T12:36:39.688Z,61.69
2018-12-26T12:37:39.680Z,60.78
2018-12-26T12:38:39.701Z,60.37
2018-12-26T12:39:39.660Z,60.60
2018-12-26T12:40:39.702Z,61.82
2018-12-26T12:41:39.651Z,62.26
2018-12-26T12:42:39.627Z,62.75
2018-12-26T12:43:39.639Z,62.02
2018-12-26T12:44:39.610Z,61.61
2018-12-26T12:45:39.596Z,60.40
2018-12-26T12:46:39.607Z,61.02
2018-12-26T12:47:39.578Z,60.89
2018-12-26T12:48:39.616Z,61.30
2018-12-26T12:49:39.554Z,61.40
2018-12-26T12:50:39.545Z,60.58
2018-12-26T12:51:39.543Z,60.68
2018-12-26T12:52:39.555Z,60.58